»·PEaware :: AAL2134 KSAN-MMPR

AAL2134 :: KSAN-MMPR

FLIGHT INFORMATION

Flight Status: Arrived
Operator:
American Airlines
More flights by this operator :: More flights under this callsign
Pilot: Kyle K. (11122)
Aircraft: BOEING 767-300
(B763)
More flights by this aircraft type
Origin: KSAN San Diego Intl-Lindbergh
United States
Destination: MMPR Lic Gustavo Diaz Ordaz Intl
Mexico
More flights between these airports :: More routes between these airports
Route: ZZOOO1 CENZA TIJ UT4 LMM UJ3 MZT J141 PVR
File this flight plan on PilotEdge
Remarks:
Altitude:
(Current/Filed)
37,000ft
Speed:
(Current/Filed)
459kts
Departed: 19-Sep-17 10:20 PM
Arrived: 20-Sep-17 01:00 AM
Distance/Time
Traveled:
964nm/2:40
Distance/Time
To Go:
Arrived

Flight Plot

Page will automatically refresh every two minutes.

Flight plan parsing failed; only flown route is shown


Map Options




Map Legend


Flown Route
Filed Route
Departure Airport
Arrival Airport
Navaid (VOR, NDB)
Fix

Horizontal Profiles

Position Reports

Time Latitude Longitude Heading Altitude Ground
Speed
19-Sep-17 21:57 32.733066 -117.200568 279 21ft 0kts
19-Sep-17 21:58 32.733066 -117.200568 279 21ft 0kts
19-Sep-17 21:59 32.733066 -117.200568 279 21ft 0kts
19-Sep-17 22:00 32.733066 -117.200568 279 21ft 0kts
19-Sep-17 22:01 32.733066 -117.200568 279 21ft 0kts
19-Sep-17 22:02 32.733066 -117.200568 279 21ft 0kts
19-Sep-17 22:03 32.733066 -117.200568 279 21ft 0kts
19-Sep-17 22:04 32.733066 -117.200568 279 21ft 0kts
19-Sep-17 22:05 32.733066 -117.200568 279 21ft 0kts
19-Sep-17 22:06 32.733066 -117.200568 279 21ft 0kts
19-Sep-17 22:07 32.733066 -117.200568 279 21ft 0kts
19-Sep-17 22:08 32.733066 -117.200568 279 21ft 0kts
19-Sep-17 22:09 32.733066 -117.200568 279 21ft 0kts
19-Sep-17 22:10 32.733066 -117.200568 279 21ft 0kts
19-Sep-17 22:11 32.733066 -117.200568 279 21ft 0kts
19-Sep-17 22:12 32.733066 -117.200568 279 21ft 0kts
19-Sep-17 22:13 32.733066 -117.200568 279 21ft 0kts
19-Sep-17 22:14 32.733048 -117.200394 266 21ft 2kts
19-Sep-17 22:15 32.733501 -117.199850 194 21ft 2kts
19-Sep-17 22:16 32.734275 -117.199625 194 21ft 2kts
19-Sep-17 22:17 32.734951 -117.199721 142 21ft 0kts
19-Sep-17 22:18 32.735012 -117.199836 108 21ft 0kts
19-Sep-17 22:19 32.735012 -117.199836 108 21ft 0kts
19-Sep-17 22:20 32.733998 -117.195773 108 23ft 21kts
19-Sep-17 22:21 32.732403 -117.189148 105 23ft 25kts
19-Sep-17 22:22 32.730490 -117.181365 110 21ft 25kts
19-Sep-17 22:23 32.729655 -117.176191 69 27ft 12kts
19-Sep-17 22:24 32.732068 -117.183602 286 22ft 124kts
19-Sep-17 22:25 32.744401 -117.233880 286 2546ft 148kts
19-Sep-17 22:26 32.755903 -117.287388 257 3865ft 218kts
19-Sep-17 22:27 32.702596 -117.301499 136 6187ft 266kts
19-Sep-17 22:28 32.641127 -117.250062 140 10062ft 287kts
19-Sep-17 22:29 32.603237 -117.151062 110 12089ft 381kts
19-Sep-17 22:30 32.565939 -117.030918 110 15884ft 406kts
19-Sep-17 22:31 32.512186 -116.913954 135 19306ft 421kts
19-Sep-17 22:32 32.431568 -116.809581 133 22407ft 440kts
19-Sep-17 22:33 32.347120 -116.701478 133 25150ft 458kts
19-Sep-17 22:34 32.259278 -116.590227 133 27588ft 474kts
19-Sep-17 22:35 32.167798 -116.474757 133 29791ft 490kts
19-Sep-17 22:36 32.074341 -116.357118 133 32153ft 494kts
19-Sep-17 22:37 31.988400 -116.249274 134 34444ft 487kts
19-Sep-17 22:38 31.896995 -116.134935 134 36458ft 481kts
19-Sep-17 22:39 31.806027 -116.021484 134 36896ft 480kts
19-Sep-17 22:40 31.714646 -115.907914 134 36819ft 480kts
19-Sep-17 22:41 31.622950 -115.794362 134 36818ft 480kts
19-Sep-17 22:42 31.531329 -115.681249 134 36818ft 479kts
19-Sep-17 22:43 31.439600 -115.568351 134 36818ft 480kts
19-Sep-17 22:44 31.348030 -115.455987 134 36818ft 479kts
19-Sep-17 22:45 31.256635 -115.344174 135 36818ft 479kts
19-Sep-17 22:46 31.164497 -115.231800 135 36816ft 479kts
19-Sep-17 22:47 31.072425 -115.119836 135 36816ft 479kts
19-Sep-17 22:48 30.979818 -115.007540 135 36818ft 486kts
19-Sep-17 22:49 30.889588 -114.893817 134 36815ft 493kts
19-Sep-17 22:50 30.795159 -114.777958 135 36815ft 495kts
19-Sep-17 22:51 30.699676 -114.663075 135 36818ft 494kts
19-Sep-17 22:52 30.597289 -114.558155 139 36821ft 494kts
19-Sep-17 22:53 30.499500 -114.446663 135 36818ft 494kts
19-Sep-17 22:54 30.403935 -114.333336 136 36817ft 494kts
19-Sep-17 22:55 30.308138 -114.219689 136 36818ft 494kts
19-Sep-17 22:56 30.212133 -114.106106 136 36817ft 494kts
19-Sep-17 22:57 30.116133 -113.992864 136 36817ft 494kts
19-Sep-17 22:58 30.020071 -113.879874 136 36836ft 494kts
19-Sep-17 22:59 29.923980 -113.767191 136 36930ft 494kts
19-Sep-17 23:00 29.828100 -113.655085 136 36955ft 494kts
19-Sep-17 23:01 29.731632 -113.542606 136 36956ft 495kts
19-Sep-17 23:02 29.635241 -113.430544 136 36956ft 494kts
19-Sep-17 23:03 29.539207 -113.319206 136 36950ft 494kts
19-Sep-17 23:04 29.442641 -113.207587 136 36954ft 494kts
19-Sep-17 23:05 29.345735 -113.095891 136 36955ft 494kts
19-Sep-17 23:06 29.248907 -112.984617 136 36955ft 491kts
19-Sep-17 23:07 29.158641 -112.881167 136 36956ft 485kts
19-Sep-17 23:08 29.060061 -112.768423 136 36954ft 489kts
19-Sep-17 23:09 28.972738 -112.668847 138 36960ft 507kts
19-Sep-17 23:10 28.893251 -112.578498 138 36958ft 509kts
19-Sep-17 23:11 28.772295 -112.441377 138 36958ft 509kts
19-Sep-17 23:12 28.662045 -112.316764 138 36947ft 508kts
19-Sep-17 23:13 28.577021 -112.220938 138 36952ft 509kts
19-Sep-17 23:14 28.460634 -112.090142 138 36952ft 508kts
19-Sep-17 23:15 28.360219 -111.977634 138 36953ft 508kts
19-Sep-17 23:16 28.259665 -111.865283 138 36955ft 508kts
19-Sep-17 23:17 28.159277 -111.753433 138 36958ft 508kts
19-Sep-17 23:18 28.058640 -111.641624 138 36959ft 508kts
19-Sep-17 23:19 27.957776 -111.529863 138 36959ft 508kts
19-Sep-17 23:20 27.857138 -111.418664 138 36960ft 508kts
19-Sep-17 23:21 27.756646 -111.307933 139 36949ft 508kts
19-Sep-17 23:22 27.655712 -111.197019 139 36952ft 508kts
19-Sep-17 23:23 27.554330 -111.085911 139 36953ft 508kts
19-Sep-17 23:24 27.453731 -110.975958 139 36953ft 506kts
19-Sep-17 23:25 27.352882 -110.866028 139 36955ft 505kts
19-Sep-17 23:26 27.252151 -110.756532 139 36957ft 505kts
19-Sep-17 23:27 27.151538 -110.647438 139 36959ft 505kts
19-Sep-17 23:28 27.067500 -110.556546 139 36960ft 505kts
19-Sep-17 23:29 26.950120 -110.429933 139 36957ft 496kts
19-Sep-17 23:30 26.852885 -110.325333 139 36950ft 489kts
19-Sep-17 23:31 26.771090 -110.237530 139 36954ft 491kts
19-Sep-17 23:32 26.673019 -110.132517 139 36960ft 490kts
19-Sep-17 23:33 26.558426 -110.010148 139 36987ft 490kts
19-Sep-17 23:34 26.476366 -109.922735 139 36991ft 490kts
19-Sep-17 23:35 26.378000 -109.818194 139 36992ft 490kts
19-Sep-17 23:36 26.279308 -109.713566 139 36993ft 490kts
19-Sep-17 23:37 26.190428 -109.598695 137 36952ft 492kts
19-Sep-17 23:38 26.092610 -109.492879 138 36949ft 491kts
19-Sep-17 23:39 25.993905 -109.388734 139 36950ft 491kts
19-Sep-17 23:40 25.897631 -109.287584 139 36942ft 491kts
19-Sep-17 23:41 25.799756 -109.185002 139 36943ft 491kts
19-Sep-17 23:42 25.700357 -109.081073 139 36944ft 491kts
19-Sep-17 23:43 25.605109 -108.973232 136 36945ft 493kts
19-Sep-17 23:44 25.509869 -108.864503 136 36945ft 492kts
19-Sep-17 23:45 25.414397 -108.755806 136 36947ft 493kts
19-Sep-17 23:46 25.319092 -108.647561 136 36947ft 493kts
19-Sep-17 23:47 25.223917 -108.539723 136 36948ft 492kts
19-Sep-17 23:48 25.128749 -108.431195 136 36950ft 493kts
19-Sep-17 23:49 25.030236 -108.337538 142 36947ft 485kts
19-Sep-17 23:50 24.933082 -108.236208 136 36943ft 480kts
19-Sep-17 23:51 24.839892 -108.132340 135 36945ft 481kts
19-Sep-17 23:52 24.746249 -108.027585 135 36944ft 481kts
19-Sep-17 23:53 24.652664 -107.923086 135 36945ft 481kts
19-Sep-17 23:54 24.558881 -107.818600 135 36945ft 481kts
19-Sep-17 23:55 24.464992 -107.714232 135 36946ft 481kts
19-Sep-17 23:56 24.371167 -107.610170 135 36946ft 481kts
19-Sep-17 23:57 24.277097 -107.506071 135 36947ft 481kts
19-Sep-17 23:58 24.183006 -107.402176 135 36947ft 481kts
19-Sep-17 23:59 24.090243 -107.299983 136 36944ft 481kts
20-Sep-17 00:00 23.996274 -107.196685 136 36944ft 481kts
20-Sep-17 00:01 23.901924 -107.093195 136 36944ft 481kts
20-Sep-17 00:02 23.808229 -106.990649 136 36945ft 481kts
20-Sep-17 00:03 23.716139 -106.886302 126 36936ft 479kts
20-Sep-17 00:04 23.632002 -106.774300 134 36947ft 477kts
20-Sep-17 00:05 23.611698 -106.751470 134 36946ft 477kts
20-Sep-17 00:06 23.611698 -106.751470 134 36946ft 477kts
20-Sep-17 00:07 23.611698 -106.751470 134 36946ft 477kts
20-Sep-17 00:08 23.611698 -106.751470 134 36946ft 477kts
20-Sep-17 00:09 23.611698 -106.751470 134 36946ft 477kts
20-Sep-17 00:10 23.611698 -106.751470 134 36946ft 477kts
20-Sep-17 00:11 23.611698 -106.751470 134 36946ft 477kts
20-Sep-17 00:12 23.611698 -106.751470 134 36946ft 477kts
20-Sep-17 00:13 23.611698 -106.751470 134 36946ft 477kts
20-Sep-17 00:14 23.611698 -106.751470 134 36946ft 477kts
20-Sep-17 00:15 23.611698 -106.751470 134 36946ft 477kts
20-Sep-17 00:16 23.611698 -106.751470 134 36946ft 477kts
20-Sep-17 00:17 23.611698 -106.751470 134 36946ft 477kts
20-Sep-17 00:18 23.611698 -106.751470 134 36946ft 477kts
20-Sep-17 00:19 23.611698 -106.751470 134 36946ft 477kts
20-Sep-17 00:20 23.611698 -106.751470 134 36946ft 477kts
20-Sep-17 00:21 23.611698 -106.751470 134 36946ft 477kts
20-Sep-17 00:22 23.611698 -106.751470 134 36946ft 477kts
20-Sep-17 00:23 23.611698 -106.751470 134 36946ft 477kts
20-Sep-17 00:24 23.611698 -106.751470 134 36946ft 477kts
20-Sep-17 00:25 23.522259 -106.653289 135 36946ft 477kts
20-Sep-17 00:26 23.428794 -106.551754 135 36946ft 477kts
20-Sep-17 00:27 23.334966 -106.450114 135 36946ft 477kts
20-Sep-17 00:28 23.241169 -106.348728 136 36946ft 477kts
20-Sep-17 00:29 23.143084 -106.261979 156 36943ft 475kts
20-Sep-17 00:30 23.017803 -106.220210 155 36942ft 475kts
20-Sep-17 00:31 22.899675 -106.156964 158 36948ft 477kts
20-Sep-17 00:32 22.779304 -106.104532 160 36944ft 476kts
20-Sep-17 00:33 22.656552 -106.052495 160 36944ft 476kts
20-Sep-17 00:34 22.536262 -106.001696 160 36405ft 455kts
20-Sep-17 00:35 22.419166 -105.951894 160 34577ft 455kts
20-Sep-17 00:36 22.298382 -105.914345 167 32769ft 456kts
20-Sep-17 00:37 22.179435 -105.870913 161 30837ft 461kts
20-Sep-17 00:38 22.061025 -105.821922 160 29076ft 444kts
20-Sep-17 00:39 21.947567 -105.774562 160 27632ft 437kts
20-Sep-17 00:40 21.843477 -105.731118 160 24830ft 368kts
20-Sep-17 00:41 21.761910 -105.697165 160 21071ft 291kts
20-Sep-17 00:42 21.689841 -105.667227 159 16240ft 273kts
20-Sep-17 00:43 21.622112 -105.639100 159 13041ft 258kts
20-Sep-17 00:44 21.546743 -105.607830 158 11891ft 351kts
20-Sep-17 00:45 21.452326 -105.568674 158 10431ft 342kts
20-Sep-17 00:46 21.373263 -105.535948 158 8802ft 297kts
20-Sep-17 00:47 21.297242 -105.504520 158 8110ft 286kts
20-Sep-17 00:48 21.222499 -105.478223 176 7387ft 283kts
20-Sep-17 00:49 21.144435 -105.474583 177 6698ft 280kts
20-Sep-17 00:50 21.068750 -105.471309 177 6096ft 267kts
20-Sep-17 00:51 20.997251 -105.468409 177 5586ft 251kts
20-Sep-17 00:52 20.929675 -105.468340 182 5263ft 240kts
20-Sep-17 00:53 20.866511 -105.471579 182 4955ft 239kts
20-Sep-17 00:54 20.800431 -105.474953 182 4559ft 238kts
20-Sep-17 00:55 20.735416 -105.478257 182 3874ft 230kts
20-Sep-17 00:56 20.675555 -105.466857 154 3240ft 215kts
20-Sep-17 00:57 20.622511 -105.440083 154 3060ft 203kts
20-Sep-17 00:58 20.577496 -105.414576 131 2820ft 179kts
20-Sep-17 00:59 20.575438 -105.368700 44 2062ft 154kts
20-Sep-17 01:00 20.605521 -105.343667 44 1054ft 137kts
20-Sep-17 01:01 20.629683 -105.313078 44 741ft 136kts
20-Sep-17 01:02 20.655139 -105.283752 49 373ft 134kts
20-Sep-17 01:03 20.679281 -105.255552 47 25ft 108kts
20-Sep-17 01:04 20.684699 -105.247302 87 31ft 10kts
20-Sep-17 01:05 20.682602 -105.246750 195 31ft 11kts
20-Sep-17 01:06 20.680931 -105.247928 224 31ft 4kts
20-Sep-17 01:07 20.679945 -105.247783 137 32ft 4kts
20-Sep-17 01:08 20.679964 -105.247062 45 33ft 0kts

Navigation Log

Ident Type
Flight plan parsing failed, navigation log unavailable